Time;durP1;ratioP1;P1;durP2;ratioP2;P2;SDS_P1;SDS_P2;PMS_P1;PMS_P2;Temp;Humidity;BMP_temperature;BMP_pressure;BME280_temperature;BME280_humidity;BME280_pressure;Samples;Min_cycle;Max_cycle;Signal;HPM_P1;HPM_P2
2023/12/24 00:02:05;;;;;;;1.80;1.13;;;12.50;81.00;;;;;;5031457;28;21303;-80
2023/12/24 00:04:31;;;;;;;2.47;1.40;;;12.50;81.00;;;;;;5013485;28;20079;-80
2023/12/24 00:06:56;;;;;;;1.50;1.08;;;12.50;81.00;;;;;;5016778;28;20044;-79
2023/12/24 00:09:22;;;;;;;2.38;1.13;;;12.50;81.00;;;;;;5019184;28;20362;-80
2023/12/24 00:11:48;;;;;;;2.90;1.45;;;12.50;81.00;;;;;;5014040;28;20025;-79
2023/12/24 00:14:14;;;;;;;2.28;1.30;;;12.50;81.00;;;;;;5027612;28;20090;-79
2023/12/24 00:16:42;;;;;;;1.90;1.30;;;12.50;81.60;;;;;;5003329;28;20040;-79
2023/12/24 00:19:09;;;;;;;2.53;1.60;;;12.50;81.00;;;;;;5040249;28;20044;-80
2023/12/24 00:21:35;;;;;;;2.13;1.40;;;12.50;81.00;;;;;;5010245;28;20029;-79
2023/12/24 00:24:01;;;;;;;2.03;1.30;;;12.50;81.00;;;;;;5016815;28;20040;-79
2023/12/24 00:26:26;;;;;;;2.53;1.83;;;12.50;81.00;;;;;;5028195;28;20030;-79
2023/12/24 00:28:52;;;;;;;1.30;1.20;;;12.50;81.00;;;;;;5013455;28;20425;-79
2023/12/24 00:31:18;;;;;;;2.03;1.20;;;12.50;81.00;;;;;;5022642;28;20508;-79
2023/12/24 00:33:44;;;;;;;1.77;1.20;;;12.50;81.60;;;;;;5028715;28;20025;-80
2023/12/24 00:36:09;;;;;;;1.83;1.25;;;12.50;81.00;;;;;;5030534;28;20428;-80
2023/12/24 00:38:35;;;;;;;2.85;1.30;;;12.50;81.00;;;;;;5013624;28;20421;-79
2023/12/24 00:41:01;;;;;;;2.10;1.30;;;12.50;81.00;;;;;;5031342;28;20033;-78
2023/12/24 00:43:27;;;;;;;1.83;1.17;;;12.50;81.00;;;;;;5009181;28;20053;-78
2023/12/24 00:45:52;;;;;;;3.38;1.30;;;12.50;81.00;;;;;;5056624;28;20037;-78
2023/12/24 00:48:19;;;;;;;2.20;1.42;;;12.50;81.00;;;;;;5010797;28;20035;-78
2023/12/24 00:50:45;;;;;;;1.90;1.10;;;12.50;81.00;;;;;;5014899;28;20041;-78
2023/12/24 00:53:11;;;;;;;1.20;1.10;;;12.40;81.00;;;;;;5009800;28;20056;-78
2023/12/24 00:55:37;;;;;;;1.90;1.40;;;12.50;81.00;;;;;;5023497;28;20037;-77
2023/12/24 00:58:02;;;;;;;1.35;1.20;;;12.50;81.00;;;;;;5028064;28;20036;-78
2023/12/24 01:00:28;;;;;;;1.73;1.15;;;12.50;81.00;;;;;;5030646;28;20108;-78
2023/12/24 01:02:54;;;;;;;1.75;1.25;;;12.50;81.00;;;;;;5038597;28;20036;-79
2023/12/24 01:05:20;;;;;;;2.03;1.20;;;12.50;81.00;;;;;;5007524;28;20446;-78
2023/12/24 01:07:46;;;;;;;1.20;1.10;;;12.50;81.00;;;;;;5042469;28;20473;-78
2023/12/24 01:10:12;;;;;;;1.60;1.30;;;12.50;81.00;;;;;;5020418;28;20371;-79
2023/12/24 01:12:38;;;;;;;1.88;1.13;;;12.50;81.00;;;;;;5017817;28;20041;-79
2023/12/24 01:15:05;;;;;;;1.33;1.10;;;12.50;81.00;;;;;;5026759;28;20501;-79
2023/12/24 01:17:30;;;;;;;1.52;1.00;;;12.50;81.00;;;;;;5026730;28;20390;-78
2023/12/24 01:19:57;;;;;;;1.98;1.10;;;12.50;81.00;;;;;;4994687;28;20025;-79
2023/12/24 01:22:23;;;;;;;2.30;1.40;;;12.50;81.00;;;;;;5037593;28;20049;-78
2023/12/24 01:24:49;;;;;;;1.40;1.30;;;12.50;81.00;;;;;;5013357;28;20529;-78
2023/12/24 01:27:18;;;;;;;1.27;1.15;;;12.50;80.90;;;;;;5027672;28;20583;-79
2023/12/24 01:29:44;;;;;;;2.33;1.23;;;12.50;81.00;;;;;;5041483;28;20029;-80
2023/12/24 01:32:10;;;;;;;1.40;1.30;;;12.50;80.90;;;;;;5029216;28;20560;-80
2023/12/24 01:34:35;;;;;;;1.85;1.10;;;12.50;80.90;;;;;;5037627;28;20543;-80
2023/12/24 01:37:01;;;;;;;1.85;1.10;;;12.50;80.90;;;;;;5029890;28;20025;-80
2023/12/24 01:39:27;;;;;;;2.05;1.55;;;12.50;80.90;;;;;;5037895;28;20394;-80
2023/12/24 01:41:53;;;;;;;1.55;1.27;;;12.50;80.90;;;;;;5010798;28;20490;-80
2023/12/24 01:44:19;;;;;;;1.42;1.02;;;12.50;80.90;;;;;;5039552;28;20034;-80
2023/12/24 01:46:46;;;;;;;1.73;1.17;;;12.50;80.90;;;;;;5028982;28;20526;-80
2023/12/24 01:49:15;;;;;;;2.42;1.25;;;12.50;81.00;;;;;;5018862;28;20044;-80
2023/12/24 01:51:41;;;;;;;1.33;1.23;;;12.50;80.90;;;;;;5042320;28;20063;-80
2023/12/24 01:54:07;;;;;;;1.67;1.30;;;12.50;80.90;;;;;;5022056;28;20041;-80
2023/12/24 01:56:33;;;;;;;2.15;1.27;;;12.50;80.90;;;;;;5017963;28;20044;-80
2023/12/24 01:59:00;;;;;;;2.17;1.27;;;12.50;80.90;;;;;;5026936;28;20016;-82
2023/12/24 02:01:27;;;;;;;1.50;1.30;;;12.50;80.90;;;;;;5025318;28;20040;-80
2023/12/24 02:03:53;;;;;;;1.40;1.30;;;12.50;81.00;;;;;;5014691;28;20140;-80
2023/12/24 02:06:19;;;;;;;1.20;1.10;;;12.50;80.90;;;;;;5023331;28;20389;-81
2023/12/24 02:08:45;;;;;;;1.90;1.50;;;12.50;80.90;;;;;;5044291;28;20140;-80
2023/12/24 02:11:11;;;;;;;1.98;1.30;;;12.50;80.90;;;;;;5006232;28;20048;-79
2023/12/24 02:13:37;;;;;;;3.05;1.40;;;12.50;81.00;;;;;;5009302;28;20477;-81
2023/12/24 02:16:05;;;;;;;1.90;1.30;;;12.50;80.90;;;;;;5013672;28;20135;-79
2023/12/24 02:18:32;;;;;;;1.30;1.20;;;12.50;81.00;;;;;;5035431;28;20045;-80
2023/12/24 02:21:04;;;;;;;2.05;1.30;;;12.50;81.00;;;;;;5021832;28;20037;-81
2023/12/24 02:23:31;;;;;;;2.22;1.65;;;12.50;81.00;;;;;;5041565;28;20056;-80
2023/12/24 02:26:01;;;;;;;2.03;1.48;;;12.50;81.00;;;;;;5011483;28;20029;-80
2023/12/24 02:28:29;;;;;;;1.45;1.30;;;12.50;81.00;;;;;;5028312;28;20380;-80
2023/12/24 02:31:01;;;;;;;1.85;1.50;;;12.50;81.00;;;;;;5029016;28;20128;-80
2023/12/24 02:33:31;;;;;;;1.30;1.25;;;12.50;81.00;;;;;;5037030;28;20082;-81
2023/12/24 02:35:59;;;;;;;1.35;1.20;;;12.50;81.00;;;;;;5036448;28;20029;-80
2023/12/24 02:38:25;;;;;;;2.65;1.50;;;12.50;81.00;;;;;;5026841;28;20029;-80
2023/12/24 02:40:50;;;;;;;1.85;1.40;;;12.50;81.00;;;;;;5012954;28;20029;-80
2023/12/24 02:43:18;;;;;;;1.50;1.40;;;12.50;81.00;;;;;;5022345;28;20046;-80
2023/12/24 02:45:44;;;;;;;1.83;1.48;;;12.50;81.00;;;;;;5013734;28;20090;-80
2023/12/24 02:48:10;;;;;;;2.00;1.27;;;12.50;81.00;;;;;;5029142;28;20491;-79
2023/12/24 02:50:36;;;;;;;1.88;1.40;;;12.50;81.10;;;;;;5046257;28;20033;-80
2023/12/24 02:53:02;;;;;;;1.95;1.40;;;12.50;81.10;;;;;;5023051;28;20425;-80
2023/12/24 02:55:28;;;;;;;1.73;1.45;;;12.50;81.10;;;;;;5032956;28;20037;-80
2023/12/24 02:57:53;;;;;;;2.38;1.60;;;12.40;81.00;;;;;;5019363;28;20451;-79
2023/12/24 03:00:19;;;;;;;1.67;1.52;;;12.50;81.10;;;;;;5011761;28;20029;-79
2023/12/24 03:02:47;;;;;;;3.05;1.65;;;12.50;81.10;;;;;;5041475;28;20492;-79
2023/12/24 03:05:13;;;;;;;3.22;1.70;;;12.40;81.00;;;;;;5030791;28;20131;-80
2023/12/24 03:07:38;;;;;;;1.50;1.40;;;12.40;81.10;;;;;;5011623;28;20047;-80
2023/12/24 03:10:05;;;;;;;2.42;1.77;;;12.40;81.10;;;;;;5028116;28;20465;-80
2023/12/24 03:12:32;;;;;;;2.95;1.67;;;12.40;81.10;;;;;;5027266;28;20319;-79
2023/12/24 03:14:58;;;;;;;2.95;1.85;;;12.40;81.00;;;;;;5026770;28;20037;-80
2023/12/24 03:17:23;;;;;;;3.80;2.45;;;12.40;81.10;;;;;;4998055;28;20056;-80
2023/12/24 03:19:49;;;;;;;3.13;1.73;;;12.40;81.10;;;;;;5044876;28;20025;-80
2023/12/24 03:22:15;;;;;;;2.95;1.70;;;12.40;81.10;;;;;;5023751;28;20029;-80
2023/12/24 03:24:41;;;;;;;2.53;1.60;;;12.50;81.10;;;;;;5042253;28;20037;-80
2023/12/24 03:27:06;;;;;;;3.53;1.88;;;12.40;81.10;;;;;;5028324;28;20029;-81
2023/12/24 03:29:32;;;;;;;1.92;1.73;;;12.40;81.10;;;;;;5026902;28;20021;-80
2023/12/24 03:31:58;;;;;;;3.10;1.95;;;12.40;81.10;;;;;;5018047;28;20385;-80
2023/12/24 03:34:24;;;;;;;2.35;1.92;;;12.40;81.10;;;;;;5007295;28;20522;-80
2023/12/24 03:36:50;;;;;;;3.45;2.17;;;12.40;81.10;;;;;;5048728;28;20044;-80
2023/12/24 03:39:16;;;;;;;1.95;1.70;;;12.40;81.10;;;;;;5001045;28;20029;-80
2023/12/24 03:41:44;;;;;;;3.22;2.00;;;12.40;81.10;;;;;;5034283;28;20037;-80
2023/12/24 03:44:09;;;;;;;3.33;2.10;;;12.40;81.10;;;;;;5031873;28;20059;-79
2023/12/24 03:46:35;;;;;;;2.63;1.63;;;12.40;81.10;;;;;;5018338;28;20056;-80
2023/12/24 03:49:01;;;;;;;1.73;1.63;;;12.40;81.10;;;;;;5010674;28;20083;-80
2023/12/24 03:51:27;;;;;;;2.00;1.58;;;12.40;81.10;;;;;;5030704;28;20041;-80
2023/12/24 03:53:53;;;;;;;1.60;1.50;;;12.40;81.10;;;;;;5032516;28;20134;-81
2023/12/24 03:56:19;;;;;;;3.00;1.85;;;12.40;81.20;;;;;;5017009;28;20055;-81
2023/12/24 03:58:46;;;;;;;2.83;1.80;;;12.40;81.20;;;;;;5008835;28;20470;-80
2023/12/24 04:01:12;;;;;;;2.35;1.63;;;12.40;81.10;;;;;;4993040;28;20033;-80
2023/12/24 04:03:40;;;;;;;2.83;1.90;;;12.40;81.10;;;;;;5033815;28;20432;-80
2023/12/24 04:06:15;;;;;;;2.20;1.70;;;12.40;81.20;;;;;;5029091;28;20402;-82
2023/12/24 04:08:42;;;;;;;2.88;2.10;;;12.40;81.20;;;;;;5038746;28;20044;-80
2023/12/24 04:11:16;;;;;;;2.85;1.70;;;12.40;81.20;;;;;;5027224;28;20033;-80
2023/12/24 04:13:43;;;;;;;1.80;1.70;;;12.40;81.20;;;;;;5036915;28;20043;-81
2023/12/24 04:16:09;;;;;;;2.90;1.60;;;12.40;81.10;;;;;;5041115;28;20096;-81
2023/12/24 04:18:35;;;;;;;2.70;1.88;;;12.40;81.20;;;;;;5025867;28;20028;-81
2023/12/24 04:21:01;;;;;;;1.50;1.40;;;12.40;81.20;;;;;;5037842;28;20092;-80
2023/12/24 04:23:27;;;;;;;1.50;1.40;;;12.40;81.20;;;;;;5033346;28;20160;-80
2023/12/24 04:25:54;;;;;;;1.50;1.40;;;12.40;81.20;;;;;;5027142;28;20147;-81
2023/12/24 04:28:20;;;;;;;1.40;1.30;;;12.40;81.20;;;;;;5030317;28;20120;-80
2023/12/24 04:30:49;;;;;;;2.08;1.40;;;12.40;81.20;;;;;;5027974;28;20047;-79
2023/12/24 04:33:15;;;;;;;1.40;1.30;;;12.40;81.20;;;;;;5010066;28;20078;-81
2023/12/24 04:35:40;;;;;;;1.40;1.30;;;12.40;81.20;;;;;;5006089;28;20454;-79
2023/12/24 04:38:06;;;;;;;1.30;1.20;;;12.40;81.20;;;;;;5017315;28;20029;-80
2023/12/24 04:40:32;;;;;;;1.50;1.40;;;12.40;81.20;;;;;;5024334;28;20025;-80
2023/12/24 04:42:58;;;;;;;1.33;1.23;;;12.50;81.20;;;;;;5005786;28;20482;-80
2023/12/24 04:45:24;;;;;;;1.40;1.30;;;12.50;81.30;;;;;;5033038;28;20390;-80
2023/12/24 04:47:53;;;;;;;1.33;1.20;;;12.50;81.20;;;;;;5025476;28;20034;-80
2023/12/24 04:50:19;;;;;;;1.00;1.00;;;12.50;81.20;;;;;;5032577;28;20037;-80
2023/12/24 04:52:44;;;;;;;1.38;1.27;;;12.50;81.20;;;;;;5028407;28;20219;-80
2023/12/24 04:55:10;;;;;;;1.35;1.23;;;12.50;81.20;;;;;;5029425;28;20168;-80
2023/12/24 04:57:38;;;;;;;1.30;1.20;;;12.50;81.20;;;;;;4990766;28;20037;-79
2023/12/24 05:00:05;;;;;;;1.20;1.10;;;12.40;81.20;;;;;;5009338;28;20035;-80
2023/12/24 05:02:33;;;;;;;1.60;1.20;;;12.50;81.20;;;;;;5009955;28;20037;-80
2023/12/24 05:05:03;;;;;;;1.15;1.15;;;12.50;81.20;;;;;;5043107;28;20061;-80
2023/12/24 05:07:29;;;;;;;1.20;1.10;;;12.50;81.20;;;;;;5021313;28;20028;-80
2023/12/24 05:09:55;;;;;;;1.10;1.10;;;12.50;81.20;;;;;;5015128;28;20110;-81
2023/12/24 05:12:21;;;;;;;1.20;1.10;;;12.50;81.20;;;;;;5027200;28;20485;-80
2023/12/24 05:14:47;;;;;;;1.10;1.10;;;12.50;81.20;;;;;;5045655;28;20108;-80
2023/12/24 05:17:13;;;;;;;1.10;1.10;;;12.50;81.20;;;;;;5016816;28;20482;-79
2023/12/24 05:19:39;;;;;;;1.05;1.05;;;12.50;81.20;;;;;;5028427;28;20041;-79
2023/12/24 05:22:05;;;;;;;1.10;1.00;;;12.50;81.20;;;;;;5013231;28;20495;-80
2023/12/24 05:24:31;;;;;;;1.27;1.17;;;12.50;81.20;;;;;;5029961;28;20108;-79
2023/12/24 05:26:57;;;;;;;1.35;1.25;;;12.50;81.30;;;;;;5012533;28;20465;-79
2023/12/24 05:29:22;;;;;;;0.82;0.82;;;12.50;81.30;;;;;;5031754;28;20896;-78
2023/12/24 05:31:49;;;;;;;1.13;1.02;;;12.50;81.20;;;;;;4986328;28;20389;-78
2023/12/24 05:34:15;;;;;;;0.90;0.90;;;12.50;81.20;;;;;;5007826;28;20541;-79
2023/12/24 05:36:41;;;;;;;0.82;0.82;;;12.50;81.20;;;;;;5048918;28;20043;-78
2023/12/24 05:39:10;;;;;;;1.10;1.10;;;12.50;81.20;;;;;;5011242;28;20109;-78
2023/12/24 05:41:36;;;;;;;0.93;0.93;;;12.50;81.20;;;;;;5023762;28;20044;-78
2023/12/24 05:44:03;;;;;;;1.00;1.00;;;12.50;81.20;;;;;;5021878;28;20102;-78
2023/12/24 05:46:29;;;;;;;1.10;1.00;;;12.50;81.20;;;;;;4997255;28;20037;-79
2023/12/24 05:48:55;;;;;;;0.80;0.80;;;12.60;81.30;;;;;;5030989;28;20025;-79
2023/12/24 05:51:21;;;;;;;0.85;0.85;;;12.60;81.30;;;;;;5031888;28;20041;-79
2023/12/24 05:53:47;;;;;;;0.90;0.90;;;12.60;81.30;;;;;;5021327;28;20115;-79
2023/12/24 05:56:13;;;;;;;0.90;0.90;;;12.60;81.30;;;;;;5007344;28;20117;-79
2023/12/24 05:58:39;;;;;;;0.85;0.85;;;12.60;81.30;;;;;;5021044;28;20152;-79
2023/12/24 06:01:05;;;;;;;0.88;0.88;;;12.60;81.30;;;;;;5027172;28;20446;-79
2023/12/24 06:03:31;;;;;;;0.82;0.82;;;12.60;81.30;;;;;;4992778;28;20061;-79
2023/12/24 06:05:56;;;;;;;0.90;0.90;;;12.60;81.30;;;;;;5029320;28;20060;-78
2023/12/24 06:08:23;;;;;;;0.90;0.90;;;12.60;81.30;;;;;;5029063;28;20036;-79
2023/12/24 06:10:49;;;;;;;0.80;0.80;;;12.60;81.30;;;;;;5027736;28;20030;-78
2023/12/24 06:13:14;;;;;;;0.80;0.80;;;12.60;81.30;;;;;;5045031;28;20459;-79
2023/12/24 06:15:40;;;;;;;1.10;1.00;;;12.60;81.30;;;;;;5030442;28;20029;-78
2023/12/24 06:18:06;;;;;;;0.90;0.90;;;12.60;81.30;;;;;;5028271;28;20440;-79
2023/12/24 06:20:32;;;;;;;1.13;1.10;;;12.60;81.30;;;;;;5019772;28;20558;-78
2023/12/24 06:23:02;;;;;;;0.88;0.88;;;12.60;81.30;;;;;;5013617;28;20087;-78
2023/12/24 06:25:28;;;;;;;0.80;0.80;;;12.70;81.40;;;;;;5029821;28;20071;-79
2023/12/24 06:27:54;;;;;;;1.75;0.90;;;12.60;81.30;;;;;;5023430;28;20040;-78
2023/12/24 06:30:20;;;;;;;1.10;1.05;;;12.70;81.30;;;;;;5045914;28;20033;-79
2023/12/24 06:32:47;;;;;;;1.42;1.33;;;12.70;81.40;;;;;;5036078;28;20036;-79
2023/12/24 06:35:13;;;;;;;1.00;0.85;;;12.70;81.40;;;;;;5028570;28;20049;-79
2023/12/24 06:37:40;;;;;;;0.95;0.95;;;12.60;81.30;;;;;;5047133;28;20033;-78
2023/12/24 06:40:06;;;;;;;0.90;0.90;;;12.70;81.40;;;;;;5028941;28;20021;-79
2023/12/24 06:42:32;;;;;;;0.90;0.90;;;12.70;81.40;;;;;;5043551;28;20053;-79
2023/12/24 06:44:58;;;;;;;1.10;1.00;;;12.70;81.30;;;;;;5032716;28;20033;-79
2023/12/24 06:47:23;;;;;;;0.95;0.95;;;12.70;81.30;;;;;;5034795;28;20021;-79
2023/12/24 06:49:49;;;;;;;0.80;0.80;;;12.70;81.40;;;;;;5029959;28;20095;-79
2023/12/24 06:52:15;;;;;;;0.90;0.90;;;12.70;81.40;;;;;;5030838;28;20394;-79
2023/12/24 06:54:40;;;;;;;1.08;1.00;;;12.70;81.30;;;;;;5044527;28;20075;-79
2023/12/24 06:57:08;;;;;;;1.08;0.98;;;12.70;81.30;;;;;;5034041;28;20028;-79
2023/12/24 06:59:34;;;;;;;2.45;1.10;;;12.80;81.40;;;;;;5035400;28;20083;-79
2023/12/24 07:02:00;;;;;;;0.93;0.90;;;12.70;81.40;;;;;;5043713;28;20034;-79
2023/12/24 07:04:25;;;;;;;0.90;0.90;;;12.80;81.40;;;;;;5010837;28;20129;-79
2023/12/24 07:06:51;;;;;;;0.90;0.90;;;12.80;81.40;;;;;;5028671;28;20032;-79
2023/12/24 07:09:17;;;;;;;0.90;0.90;;;12.80;81.40;;;;;;5043812;28;20048;-79
2023/12/24 07:11:43;;;;;;;0.93;0.93;;;12.80;81.40;;;;;;5024996;28;20645;-79
2023/12/24 07:14:09;;;;;;;1.05;1.00;;;12.80;81.40;;;;;;5034729;28;20436;-80
2023/12/24 07:16:34;;;;;;;1.10;1.00;;;12.80;81.40;;;;;;5034264;28;20045;-79
2023/12/24 07:19:05;;;;;;;1.20;1.10;;;12.80;81.30;;;;;;5030109;28;20025;-78
2023/12/24 07:21:31;;;;;;;1.13;1.10;;;12.80;81.30;;;;;;5019327;28;20041;-79
2023/12/24 07:23:57;;;;;;;1.00;1.00;;;12.80;81.30;;;;;;5034077;28;20048;-79
2023/12/24 07:26:22;;;;;;;1.00;1.00;;;12.80;81.40;;;;;;4998316;28;20029;-79
2023/12/24 07:28:48;;;;;;;1.00;0.90;;;12.80;81.40;;;;;;5031886;28;20026;-79
2023/12/24 07:31:14;;;;;;;1.23;1.10;;;12.80;81.40;;;;;;5035206;28;20029;-79
2023/12/24 07:33:40;;;;;;;1.13;1.02;;;12.90;81.50;;;;;;5010771;28;20033;-78
2023/12/24 07:36:06;;;;;;;1.15;0.95;;;12.80;81.40;;;;;;5043503;28;20056;-79
2023/12/24 07:38:32;;;;;;;1.10;1.00;;;12.90;81.40;;;;;;5029808;28;20040;-79
2023/12/24 07:40:58;;;;;;;1.00;1.00;;;12.80;81.40;;;;;;5006240;28;20422;-78
2023/12/24 07:43:24;;;;;;;0.93;0.90;;;12.90;81.40;;;;;;5051215;28;20061;-79
2023/12/24 07:45:50;;;;;;;2.15;1.23;;;12.90;81.40;;;;;;5015714;28;20032;-79
2023/12/24 07:48:16;;;;;;;1.73;1.10;;;12.90;81.40;;;;;;5027577;28;20028;-78
2023/12/24 07:50:42;;;;;;;0.98;0.98;;;12.90;81.40;;;;;;5023219;28;20614;-78
2023/12/24 07:53:08;;;;;;;1.13;1.02;;;12.90;81.40;;;;;;5015840;28;20095;-79
2023/12/24 07:55:34;;;;;;;1.45;1.00;;;12.90;81.40;;;;;;5025802;28;20021;-80
2023/12/24 07:58:00;;;;;;;0.88;0.88;;;12.90;81.40;;;;;;5018420;28;20063;-80
2023/12/24 08:00:25;;;;;;;0.90;0.90;;;12.90;81.40;;;;;;5042156;28;20061;-78
2023/12/24 08:02:51;;;;;;;0.90;0.90;;;12.90;81.40;;;;;;5041743;28;20043;-79
2023/12/24 08:05:17;;;;;;;1.13;1.00;;;13.00;81.40;;;;;;5014659;28;20120;-79
2023/12/24 08:07:43;;;;;;;0.82;0.82;;;13.00;81.40;;;;;;5025750;28;20024;-78
2023/12/24 08:10:10;;;;;;;0.82;0.82;;;13.00;81.40;;;;;;5032401;28;20108;-79
2023/12/24 08:12:35;;;;;;;1.10;0.90;;;13.00;81.50;;;;;;5036276;28;20037;-79
2023/12/24 08:15:01;;;;;;;1.17;1.08;;;13.00;81.40;;;;;;5032669;28;20034;-79
2023/12/24 08:17:27;;;;;;;1.10;1.00;;;13.00;81.40;;;;;;5032906;28;20025;-79
2023/12/24 08:19:54;;;;;;;1.20;1.10;;;13.00;81.40;;;;;;5011943;28;20029;-79
2023/12/24 08:22:20;;;;;;;1.17;1.00;;;13.00;81.40;;;;;;5015820;28;20035;-78
2023/12/24 08:24:46;;;;;;;2.90;1.10;;;13.00;81.40;;;;;;5027402;28;20029;-79
2023/12/24 08:27:12;;;;;;;1.00;1.00;;;13.00;81.40;;;;;;4990635;28;20032;-78
2023/12/24 08:29:38;;;;;;;0.85;0.85;;;13.00;81.40;;;;;;5032033;28;20072;-78
2023/12/24 08:32:04;;;;;;;1.58;1.20;;;13.00;81.40;;;;;;5032775;28;20028;-79
2023/12/24 08:34:29;;;;;;;1.00;1.00;;;13.10;81.40;;;;;;5041929;28;20525;-78
2023/12/24 08:36:55;;;;;;;1.45;1.00;;;13.10;81.40;;;;;;5010437;28;20080;-80
2023/12/24 08:39:21;;;;;;;1.00;1.00;;;13.10;81.40;;;;;;5026909;28;20064;-78
2023/12/24 08:41:47;;;;;;;1.15;1.05;;;13.10;81.40;;;;;;5046812;28;20030;-79
2023/12/24 08:44:12;;;;;;;1.05;1.05;;;13.10;81.40;;;;;;5033299;28;20393;-78
2023/12/24 08:46:39;;;;;;;1.15;0.98;;;13.10;81.40;;;;;;4999355;28;20044;-79
2023/12/24 08:49:05;;;;;;;1.00;1.00;;;13.10;81.40;;;;;;5022656;28;20135;-80
2023/12/24 08:51:31;;;;;;;0.90;0.90;;;13.10;81.40;;;;;;5029428;28;20037;-78
2023/12/24 08:53:57;;;;;;;1.00;1.00;;;13.10;81.40;;;;;;5029399;28;20030;-78
2023/12/24 08:56:23;;;;;;;0.85;0.85;;;13.10;81.40;;;;;;5008840;28;20037;-79
2023/12/24 08:58:48;;;;;;;1.13;1.10;;;13.20;81.40;;;;;;4996853;28;20037;-79
2023/12/24 09:01:14;;;;;;;1.10;1.00;;;13.10;81.40;;;;;;5030133;28;20028;-77
2023/12/24 09:03:40;;;;;;;0.95;0.90;;;13.20;81.40;;;;;;4999244;28;20036;-80
2023/12/24 09:06:06;;;;;;;0.82;0.82;;;13.20;81.40;;;;;;5004486;28;20029;-80
2023/12/24 09:08:31;;;;;;;0.90;0.90;;;13.20;81.40;;;;;;5015802;28;20037;-79
2023/12/24 09:10:57;;;;;;;1.15;1.05;;;13.20;81.50;;;;;;5032801;28;20440;-78
2023/12/24 09:13:23;;;;;;;0.85;0.85;;;13.20;81.40;;;;;;5030034;28;20398;-78
2023/12/24 09:15:49;;;;;;;0.90;0.90;;;13.20;81.40;;;;;;5016469;28;20520;-78
2023/12/24 09:18:14;;;;;;;0.90;0.90;;;13.20;81.40;;;;;;5025478;28;20047;-78
2023/12/24 09:20:40;;;;;;;0.90;0.90;;;13.20;81.40;;;;;;5044346;28;20382;-79
2023/12/24 09:23:06;;;;;;;0.98;0.98;;;13.20;81.40;;;;;;5022176;28;20509;-78
2023/12/24 09:25:31;;;;;;;0.80;0.80;;;13.20;81.40;;;;;;5015455;28;20091;-78
2023/12/24 09:27:57;;;;;;;0.80;0.80;;;13.30;81.40;;;;;;5005494;28;20026;-78
2023/12/24 09:30:24;;;;;;;1.00;1.00;;;13.20;81.40;;;;;;5022639;28;20057;-79
2023/12/24 09:32:50;;;;;;;0.93;0.93;;;13.30;81.50;;;;;;5006917;28;20071;-78
2023/12/24 09:35:16;;;;;;;0.80;0.80;;;13.30;81.50;;;;;;5038611;28;20057;-79
2023/12/24 09:37:42;;;;;;;0.90;0.90;;;13.30;81.50;;;;;;5028521;28;20029;-78
2023/12/24 09:40:08;;;;;;;0.85;0.80;;;13.30;81.40;;;;;;5021904;28;20064;-79
2023/12/24 09:42:35;;;;;;;0.90;0.90;;;13.30;81.50;;;;;;5012029;28;20040;-78
2023/12/24 09:45:01;;;;;;;0.80;0.80;;;13.30;81.50;;;;;;5042770;28;20075;-78
2023/12/24 09:47:28;;;;;;;0.82;0.82;;;13.30;81.50;;;;;;5040118;28;20512;-78
2023/12/24 09:49:53;;;;;;;1.25;0.90;;;13.30;81.50;;;;;;5023009;28;20141;-78
2023/12/24 09:52:21;;;;;;;0.95;0.95;;;13.30;81.40;;;;;;5025571;28;20509;-78
2023/12/24 09:54:47;;;;;;;0.80;0.80;;;13.30;81.40;;;;;;5013976;28;20029;-77
2023/12/24 09:57:13;;;;;;;1.05;0.95;;;13.40;81.50;;;;;;5009918;28;20021;-79
2023/12/24 09:59:39;;;;;;;1.15;0.98;;;13.40;81.50;;;;;;5011637;28;20389;-78
2023/12/24 10:02:05;;;;;;;0.80;0.80;;;13.40;81.50;;;;;;5029872;28;20071;-78
2023/12/24 10:04:31;;;;;;;1.15;1.00;;;13.40;81.50;;;;;;5023627;28;20492;-77
2023/12/24 10:06:58;;;;;;;1.10;1.02;;;13.40;81.40;;;;;;5044821;28;20025;-78
2023/12/24 10:09:40;;;;;;;0.95;0.95;;;13.40;81.50;;;;;;5029658;28;20481;-77
2023/12/24 10:12:08;;;;;;;1.25;1.13;;;13.40;81.40;;;;;;5031023;28;20044;-77
2023/12/24 10:14:35;;;;;;;1.33;1.02;;;13.40;81.40;;;;;;5049067;28;20037;-77
2023/12/24 10:17:03;;;;;;;1.08;0.98;;;13.40;81.40;;;;;;5020732;28;20489;-78
2023/12/24 10:19:29;;;;;;;1.48;1.00;;;13.40;81.40;;;;;;5019259;28;20021;-77
2023/12/24 10:22:08;;;;;;;1.23;1.00;;;13.40;81.40;;;;;;5024544;28;20032;-77
2023/12/24 10:24:40;;;;;;;1.17;0.90;;;13.40;81.50;;;;;;5030791;28;20034;-78
2023/12/24 10:27:11;;;;;;;2.47;1.30;;;13.40;81.40;;;;;;5027781;28;20040;-78
2023/12/24 10:29:39;;;;;;;1.40;1.20;;;13.50;81.50;;;;;;4998567;28;20124;-77
2023/12/24 10:32:05;;;;;;;2.38;1.10;;;13.50;81.50;;;;;;5025385;28;20037;-78
2023/12/24 10:34:33;;;;;;;3.40;1.50;;;13.50;81.50;;;;;;5029127;28;20029;-77
2023/12/24 10:37:20;;;;;;;2.20;1.20;;;13.50;81.50;;;;;;5031147;28;20025;-77
2023/12/24 10:39:46;;;;;;;2.33;1.27;;;13.50;81.50;;;;;;5038258;28;20036;-78
2023/12/24 10:42:13;;;;;;;2.90;1.40;;;13.50;81.50;;;;;;5031579;28;20061;-77
2023/12/24 10:44:39;;;;;;;4.15;1.75;;;13.60;81.50;;;;;;5030247;28;20092;-79
2023/12/24 10:47:05;;;;;;;2.05;1.23;;;13.60;81.50;;;;;;5016373;28;21564;-77
2023/12/24 10:49:31;;;;;;;3.50;1.67;;;13.50;81.40;;;;;;5005265;28;20328;-78
2023/12/24 10:51:59;;;;;;;2.75;1.45;;;13.50;81.40;;;;;;5027749;28;20041;-79
2023/12/24 10:54:25;;;;;;;3.40;1.50;;;13.60;81.50;;;;;;5014149;28;20043;-79
2023/12/24 10:57:00;;;;;;;4.65;1.55;;;13.60;81.50;;;;;;5031159;28;20033;-78
2023/12/24 10:59:52;;;;;;;2.42;1.38;;;13.60;81.50;;;;;;5039386;28;20159;-78
2023/12/24 11:02:18;;;;;;;4.93;1.50;;;13.60;81.50;;;;;;5040451;28;20473;-78
2023/12/24 11:04:45;;;;;;;2.72;1.50;;;13.60;81.40;;;;;;5024423;28;20500;-77
2023/12/24 11:07:33;;;;;;;4.63;1.60;;;13.60;81.50;;;;;;5011921;28;20025;-77
2023/12/24 11:10:06;;;;;;;3.53;1.70;;;13.60;81.60;;;;;;5037858;28;20458;-79
2023/12/24 11:12:33;;;;;;;2.47;1.42;;;13.60;81.50;;;;;;5030307;28;20033;-77
2023/12/24 11:15:00;;;;;;;2.72;1.80;;;13.60;81.50;;;;;;5024495;28;20033;-77
2023/12/24 11:17:41;;;;;;;3.15;1.50;;;13.70;81.60;;;;;;5038762;28;20044;-77
2023/12/24 11:20:42;;;;;;;3.92;1.50;;;13.70;81.60;;;;;;5042795;28;20021;-76
2023/12/24 11:23:09;;;;;;;3.25;1.48;;;13.70;81.60;;;;;;5042466;28;20024;-78
2023/12/24 11:25:41;;;;;;;3.83;1.60;;;13.70;81.50;;;;;;5027149;28;20053;-77
2023/12/24 11:28:37;;;;;;;2.35;1.42;;;13.70;81.50;;;;;;5025076;28;20466;-77
2023/12/24 11:31:04;;;;;;;3.97;1.67;;;13.70;81.50;;;;;;5040491;28;20017;-77
2023/12/24 11:33:42;;;;;;;2.47;1.60;;;13.70;81.50;;;;;;5044409;28;20044;-80
2023/12/24 11:36:11;;;;;;;4.25;1.42;;;13.70;81.50;;;;;;5029702;28;20611;-82
2023/12/24 11:38:39;;;;;;;3.80;1.63;;;13.80;81.60;;;;;;5028751;28;20052;-77
2023/12/24 11:41:07;;;;;;;2.78;1.75;;;13.80;81.70;;;;;;5042454;28;20029;-78
2023/12/24 11:43:34;;;;;;;3.20;1.67;;;13.80;82.40;;;;;;5042272;28;20049;-76
2023/12/24 11:45:59;;;;;;;2.63;1.70;;;13.80;81.80;;;;;;5005684;28;20341;-76
2023/12/24 11:48:30;;;;;;;4.03;1.67;;;13.80;81.80;;;;;;5010055;28;20025;-78
2023/12/24 11:51:09;;;;;;;2.22;1.50;;;13.80;81.80;;;;;;5038105;28;20057;-77
2023/12/24 11:53:37;;;;;;;2.97;1.67;;;13.90;81.90;;;;;;5029462;28;20037;-79
2023/12/24 11:56:07;;;;;;;4.05;1.95;;;13.90;81.80;;;;;;5028905;28;20017;-78
2023/12/24 11:58:34;;;;;;;5.40;1.88;;;13.90;81.90;;;;;;5045287;28;20369;-80
2023/12/24 12:01:03;;;;;;;2.33;1.50;;;13.90;82.50;;;;;;5031045;28;20047;-77
2023/12/24 12:03:33;;;;;;;2.88;1.55;;;13.90;81.90;;;;;;5047295;28;20040;-78
2023/12/24 12:05:59;;;;;;;1.70;1.42;;;13.90;81.90;;;;;;5033495;28;20255;-78
2023/12/24 12:08:27;;;;;;;1.90;1.48;;;13.90;81.90;;;;;;5030635;28;20013;-78
2023/12/24 12:10:52;;;;;;;2.83;1.80;;;13.90;81.80;;;;;;5025494;28;20021;-78
2023/12/24 12:13:19;;;;;;;2.45;1.65;;;13.90;81.80;;;;;;5027632;28;20051;-79
2023/12/24 12:15:44;;;;;;;1.75;1.42;;;13.90;81.80;;;;;;5017913;28;20029;-78
2023/12/24 12:18:11;;;;;;;1.60;1.38;;;14.00;81.80;;;;;;5017591;28;20094;-78
2023/12/24 12:20:37;;;;;;;2.10;1.55;;;14.00;81.90;;;;;;5032251;28;20032;-79
2023/12/24 12:23:03;;;;;;;2.13;1.50;;;14.00;81.80;;;;;;5010730;28;20149;-79
2023/12/24 12:25:28;;;;;;;2.25;1.60;;;14.00;81.80;;;;;;5017625;28;20037;-79
2023/12/24 12:27:55;;;;;;;1.83;1.48;;;14.00;81.80;;;;;;5004787;28;20103;-79
2023/12/24 12:30:24;;;;;;;3.03;1.60;;;14.00;81.80;;;;;;5023134;28;20392;-79
2023/12/24 12:32:50;;;;;;;2.50;1.58;;;14.10;81.80;;;;;;5041079;28;20107;-79
2023/12/24 12:35:15;;;;;;;1.77;1.58;;;14.00;81.80;;;;;;4999263;28;20449;-79
2023/12/24 12:37:41;;;;;;;1.52;1.40;;;14.10;81.80;;;;;;5016687;28;20465;-78
2023/12/24 12:40:08;;;;;;;1.42;1.33;;;14.10;81.80;;;;;;5030389;28;20469;-78
2023/12/24 12:42:34;;;;;;;1.67;1.40;;;14.10;82.20;;;;;;5045499;28;20072;-76
2023/12/24 12:45:00;;;;;;;1.77;1.60;;;14.10;81.70;;;;;;5021090;28;20029;-76
2023/12/24 12:47:26;;;;;;;1.98;1.40;;;14.10;81.70;;;;;;5010189;28;20648;-78